Time;durP1;ratioP1;P1;durP2;ratioP2;P2;SDS_P1;SDS_P2;PMS_P1;PMS_P2;Temp;Humidity;BMP_temperature;BMP_pressure;BME280_temperature;BME280_humidity;BME280_pressure;Samples;Min_cycle;Max_cycle;Signal;HPM_P1;HPM_P2
2021/01/13 00:00:21;;;;;;;25.67;7.87;;;2.60;99.90;;;;;;5030726;28;21000;-73
2021/01/13 00:02:47;;;;;;;16.03;6.47;;;2.70;99.90;;;;;;5030605;28;20441;-75
2021/01/13 00:05:13;;;;;;;10.53;6.17;;;2.60;99.90;;;;;;5026176;28;20484;-74
2021/01/13 00:07:42;;;;;;;10.57;6.77;;;2.60;99.90;;;;;;5029876;28;20422;-73
2021/01/13 00:10:09;;;;;;;12.40;7.53;;;2.60;99.90;;;;;;5015270;28;20416;-73
2021/01/13 00:12:39;;;;;;;13.20;7.73;;;2.60;99.90;;;;;;5026441;28;20442;-74
2021/01/13 00:15:06;;;;;;;15.40;6.40;;;2.70;99.90;;;;;;5031785;28;20418;-74
2021/01/13 00:17:32;;;;;;;18.43;7.27;;;2.60;99.90;;;;;;5030894;28;20433;-74
2021/01/13 00:19:58;;;;;;;10.73;7.30;;;2.60;99.90;;;;;;5030265;28;20434;-74
2021/01/13 00:22:24;;;;;;;15.67;9.90;;;2.60;99.90;;;;;;5029699;28;20232;-74
2021/01/13 00:24:53;;;;;;;15.70;7.50;;;2.60;99.90;;;;;;5030658;28;20547;-74
2021/01/13 00:27:21;;;;;;;17.93;8.07;;;2.60;99.90;;;;;;5030085;28;20802;-73
2021/01/13 00:29:48;;;;;;;17.60;6.63;;;2.70;99.90;;;;;;5030723;28;20419;-73
2021/01/13 00:32:14;;;;;;;12.87;6.90;;;2.70;99.90;;;;;;5021719;28;20434;-73
2021/01/13 00:34:40;;;;;;;13.50;6.83;;;2.80;99.90;;;;;;5030155;28;20533;-74
2021/01/13 00:37:07;;;;;;;8.67;6.93;;;2.70;99.90;;;;;;5034710;28;20648;-73
2021/01/13 00:39:33;;;;;;;17.03;7.40;;;2.80;99.90;;;;;;5030942;28;20237;-73
2021/01/13 00:42:01;;;;;;;17.37;7.30;;;2.70;99.90;;;;;;5027265;28;20453;-74
2021/01/13 00:44:26;;;;;;;14.10;7.50;;;2.80;99.90;;;;;;5029978;28;20450;-73
2021/01/13 00:46:52;;;;;;;9.50;6.00;;;2.70;99.90;;;;;;5033806;28;20964;-73
2021/01/13 00:49:17;;;;;;;12.50;6.50;;;2.80;99.90;;;;;;5034200;28;20235;-74
2021/01/13 00:51:43;;;;;;;12.27;6.13;;;2.80;99.90;;;;;;5033900;28;20428;-74
2021/01/13 00:54:11;;;;;;;15.40;7.73;;;2.80;99.90;;;;;;5034325;28;20215;-74
2021/01/13 00:56:46;;;;;;;15.57;6.80;;;2.80;99.90;;;;;;5033642;28;20492;-74
2021/01/13 00:59:12;;;;;;;15.77;7.67;;;2.80;99.90;;;;;;5033153;28;21014;-74
2021/01/13 01:01:39;;;;;;;12.40;5.73;;;2.70;99.90;;;;;;5032011;28;20464;-74
2021/01/13 01:04:05;;;;;;;20.87;8.20;;;2.70;99.90;;;;;;5033969;28;20489;-73
2021/01/13 01:06:31;;;;;;;12.30;7.27;;;2.80;99.90;;;;;;5033082;28;20434;-73
2021/01/13 01:08:56;;;;;;;14.87;7.90;;;2.80;99.90;;;;;;5032385;28;20433;-73
2021/01/13 01:11:25;;;;;;;13.50;7.77;;;2.70;99.90;;;;;;5031538;28;20219;-73
2021/01/13 01:13:51;;;;;;;11.03;6.73;;;2.80;99.90;;;;;;5033470;28;20297;-74
2021/01/13 01:16:17;;;;;;;12.80;6.60;;;2.90;99.90;;;;;;5033712;28;20529;-75
2021/01/13 01:18:43;;;;;;;19.03;7.47;;;2.80;99.90;;;;;;5033691;28;20187;-73
2021/01/13 01:21:09;;;;;;;14.00;7.00;;;2.80;99.90;;;;;;5031324;28;20871;-73
2021/01/13 01:23:38;;;;;;;20.07;8.10;;;2.90;99.90;;;;;;5031466;28;20470;-74
2021/01/13 01:26:05;;;;;;;12.90;7.13;;;2.80;99.90;;;;;;5031030;28;20431;-74
2021/01/13 01:28:31;;;;;;;13.00;7.50;;;2.70;99.90;;;;;;5032759;28;20432;-74
2021/01/13 01:30:56;;;;;;;19.17;9.20;;;2.70;99.90;;;;;;5033650;28;20418;-75
2021/01/13 01:33:22;;;;;;;14.63;8.90;;;2.80;99.90;;;;;;5032888;28;21045;-74
2021/01/13 01:35:49;;;;;;;22.57;8.73;;;2.70;99.90;;;;;;5032950;28;20198;-74
2021/01/13 01:38:15;;;;;;;12.23;8.57;;;2.70;99.90;;;;;;5032572;28;20426;-74
2021/01/13 01:40:41;;;;;;;18.07;7.40;;;2.60;99.90;;;;;;5033766;28;20592;-75
2021/01/13 01:43:06;;;;;;;11.87;7.63;;;2.50;99.90;;;;;;5033823;28;20184;-74
2021/01/13 01:45:32;;;;;;;19.87;8.60;;;2.60;99.90;;;;;;5034108;28;20214;-74
2021/01/13 01:48:32;;;;;;;21.00;9.67;;;2.50;99.90;;;;;;5032801;28;20180;-74
2021/01/13 01:50:59;;;;;;;11.50;8.43;;;2.50;99.90;;;;;;5033543;28;20176;-74
2021/01/13 01:53:37;;;;;;;14.13;9.27;;;2.50;99.90;;;;;;5033611;28;20442;-73
2021/01/13 01:56:26;;;;;;;15.63;9.40;;;2.50;99.90;;;;;;5034006;28;20414;-74
2021/01/13 01:59:14;;;;;;;16.47;9.40;;;2.50;99.90;;;;;;5032265;28;20418;-74
2021/01/13 02:01:44;;;;;;;24.97;10.87;;;2.50;99.90;;;;;;5033036;28;20462;-74
2021/01/13 02:04:14;;;;;;;22.80;9.93;;;2.50;99.90;;;;;;5033283;28;20445;-73
2021/01/13 02:07:08;;;;;;;23.37;9.80;;;2.50;99.90;;;;;;5024832;28;20420;-74
2021/01/13 02:09:35;;;;;;;14.57;10.40;;;2.40;99.90;;;;;;5020879;28;20418;-74
2021/01/13 02:12:09;;;;;;;14.57;9.07;;;2.50;99.90;;;;;;5017483;28;20422;-73
2021/01/13 02:14:34;;;;;;;21.83;10.90;;;2.50;99.90;;;;;;5033104;28;20500;-73
2021/01/13 02:17:04;;;;;;;20.93;12.60;;;2.50;99.90;;;;;;5033049;28;20410;-73
2021/01/13 02:19:59;;;;;;;19.07;10.10;;;2.50;99.90;;;;;;5032746;28;20175;-73
2021/01/13 02:22:26;;;;;;;23.10;10.40;;;2.50;99.90;;;;;;5032455;28;20561;-73
2021/01/13 02:25:15;;;;;;;19.03;9.90;;;2.50;99.90;;;;;;5032947;28;21132;-73
2021/01/13 02:27:59;;;;;;;16.00;9.60;;;2.50;99.90;;;;;;5031747;28;20475;-74
2021/01/13 02:30:31;;;;;;;17.50;9.80;;;2.60;99.90;;;;;;5031719;28;20432;-74
2021/01/13 02:33:00;;;;;;;17.90;9.67;;;2.60;99.90;;;;;;5033052;28;20437;-73
2021/01/13 02:35:27;;;;;;;19.07;11.00;;;2.70;99.90;;;;;;5033065;28;20511;-73
2021/01/13 02:38:02;;;;;;;13.47;9.97;;;2.60;99.90;;;;;;5032436;28;20452;-74
2021/01/13 02:40:30;;;;;;;18.63;9.13;;;2.60;99.90;;;;;;5031242;28;20421;-74
2021/01/13 02:42:58;;;;;;;19.60;10.60;;;2.70;99.90;;;;;;5032498;28;20436;-74
2021/01/13 02:45:25;;;;;;;21.60;9.97;;;2.60;99.90;;;;;;5032804;28;20421;-74
2021/01/13 02:48:02;;;;;;;20.87;9.80;;;2.50;99.90;;;;;;5032430;28;20430;-73
2021/01/13 02:50:31;;;;;;;25.40;12.70;;;2.50;99.90;;;;;;5032334;28;20420;-73
2021/01/13 02:53:08;;;;;;;18.80;10.77;;;2.40;99.90;;;;;;5032424;28;20398;-74
2021/01/13 02:56:01;;;;;;;21.90;10.60;;;2.40;99.90;;;;;;5032486;28;20509;-73
2021/01/13 02:58:30;;;;;;;19.83;9.60;;;2.40;99.90;;;;;;5028121;28;20419;-73
2021/01/13 03:00:56;;;;;;;16.30;9.60;;;2.40;99.90;;;;;;5032163;28;20478;-74
2021/01/13 03:03:22;;;;;;;15.73;8.70;;;2.40;99.90;;;;;;5032147;28;20480;-73
2021/01/13 03:05:48;;;;;;;23.00;10.73;;;2.50;99.90;;;;;;5032284;28;20410;-73
2021/01/13 03:08:16;;;;;;;13.30;9.40;;;2.40;99.90;;;;;;5032351;28;20394;-74
2021/01/13 03:10:47;;;;;;;20.50;9.43;;;2.60;99.90;;;;;;5031907;28;20489;-74
2021/01/13 03:13:14;;;;;;;16.57;9.20;;;2.70;99.90;;;;;;5032520;28;20427;-75
2021/01/13 03:15:40;;;;;;;19.27;9.67;;;2.70;99.90;;;;;;5031938;28;20468;-74
2021/01/13 03:18:09;;;;;;;12.83;9.47;;;2.70;99.90;;;;;;5032352;28;20443;-74
2021/01/13 03:20:40;;;;;;;15.20;9.30;;;2.70;99.90;;;;;;5031766;28;20480;-74
2021/01/13 03:23:12;;;;;;;13.80;9.50;;;2.70;99.90;;;;;;5030987;28;20914;-73
2021/01/13 03:25:49;;;;;;;19.43;10.03;;;2.70;99.90;;;;;;5031007;28;20897;-73
2021/01/13 03:28:17;;;;;;;22.63;9.60;;;2.70;99.90;;;;;;5031610;28;20938;-74
2021/01/13 03:30:49;;;;;;;18.63;9.60;;;2.60;99.90;;;;;;5031674;28;20755;-73
2021/01/13 03:33:24;;;;;;;18.03;10.33;;;2.60;99.90;;;;;;5047168;28;20432;-74
2021/01/13 03:36:00;;;;;;;12.97;9.63;;;2.70;99.90;;;;;;5052346;28;20909;-73
2021/01/13 03:38:30;;;;;;;15.90;11.20;;;2.60;99.90;;;;;;5035111;28;20418;-73
2021/01/13 03:41:04;;;;;;;12.97;10.10;;;2.60;99.90;;;;;;5031830;28;20458;-73
2021/01/13 03:43:37;;;;;;;33.53;11.00;;;2.50;99.90;;;;;;5031941;28;20874;-73
2021/01/13 03:46:06;;;;;;;19.27;12.07;;;2.50;99.90;;;;;;5032232;28;20405;-73
2021/01/13 03:48:48;;;;;;;20.20;12.17;;;2.50;99.90;;;;;;5023885;28;20429;-75
2021/01/13 03:51:42;;;;;;;20.70;10.60;;;2.50;99.90;;;;;;5022661;28;20798;-74
2021/01/13 03:54:10;;;;;;;18.87;9.63;;;2.60;99.90;;;;;;5023419;28;20457;-73
2021/01/13 03:56:47;;;;;;;15.73;11.07;;;2.60;99.90;;;;;;5031583;28;20518;-74
2021/01/13 03:59:18;;;;;;;25.40;11.60;;;2.70;99.90;;;;;;5031652;28;20416;-74
2021/01/13 04:01:52;;;;;;;23.23;9.90;;;2.60;99.90;;;;;;5020639;28;20457;-74
2021/01/13 04:04:53;;;;;;;14.50;11.03;;;2.70;99.90;;;;;;5032185;28;20427;-73
2021/01/13 04:07:23;;;;;;;33.03;11.50;;;2.60;99.90;;;;;;5031950;28;20394;-74
2021/01/13 04:09:49;;;;;;;22.10;11.17;;;2.60;99.90;;;;;;5031552;28;20884;-74
2021/01/13 04:12:16;;;;;;;14.30;10.23;;;2.60;99.90;;;;;;5033945;28;20430;-74
2021/01/13 04:14:53;;;;;;;23.17;11.00;;;2.60;99.90;;;;;;5035554;28;20823;-73
2021/01/13 04:17:19;;;;;;;23.30;12.50;;;2.60;99.90;;;;;;5035563;28;20409;-74
2021/01/13 04:19:46;;;;;;;29.07;12.47;;;2.60;99.90;;;;;;5035694;28;20489;-73
2021/01/13 04:22:14;;;;;;;20.77;11.60;;;2.60;99.90;;;;;;5035117;28;20195;-73
2021/01/13 04:24:41;;;;;;;20.73;12.37;;;2.60;99.90;;;;;;5034929;28;20520;-73
2021/01/13 04:27:09;;;;;;;23.20;11.80;;;2.60;99.90;;;;;;5034051;28;20406;-73
2021/01/13 04:29:35;;;;;;;19.90;13.00;;;2.50;99.90;;;;;;5035292;28;20411;-73
2021/01/13 04:32:01;;;;;;;24.50;15.33;;;2.50;99.90;;;;;;5035200;28;20459;-74
2021/01/13 04:34:27;;;;;;;22.80;14.03;;;2.50;99.90;;;;;;5035166;28;20266;-73
2021/01/13 04:36:56;;;;;;;23.13;13.53;;;2.50;99.90;;;;;;5037875;28;20516;-73
2021/01/13 04:39:24;;;;;;;24.67;15.27;;;2.60;99.90;;;;;;5035241;28;20173;-73
2021/01/13 04:42:09;;;;;;;20.07;13.37;;;2.60;99.90;;;;;;5034981;28;21022;-74
2021/01/13 04:45:03;;;;;;;20.87;13.33;;;2.70;99.90;;;;;;5035151;28;20501;-74
2021/01/13 04:47:51;;;;;;;24.73;12.77;;;2.60;99.90;;;;;;5062873;28;20810;-74
2021/01/13 04:50:18;;;;;;;24.40;13.07;;;2.60;99.90;;;;;;5035178;28;20398;-75
2021/01/13 04:52:47;;;;;;;24.23;14.03;;;2.70;99.90;;;;;;5033658;28;20453;-74
2021/01/13 04:55:25;;;;;;;27.63;12.53;;;2.70;99.90;;;;;;5034981;28;20787;-75
2021/01/13 04:58:28;;;;;;;23.30;12.70;;;2.70;99.90;;;;;;5035230;28;20406;-74
2021/01/13 05:01:07;;;;;;;25.80;12.70;;;2.70;99.90;;;;;;5034404;28;20450;-73
2021/01/13 05:03:49;;;;;;;21.00;12.37;;;2.70;99.90;;;;;;5034647;28;20428;-73
2021/01/13 05:06:32;;;;;;;31.50;15.77;;;2.70;99.90;;;;;;5035063;28;20406;-74
2021/01/13 05:09:07;;;;;;;25.77;13.77;;;2.80;99.90;;;;;;5034604;28;20386;-74
2021/01/13 05:11:40;;;;;;;26.20;15.30;;;2.80;99.90;;;;;;5034158;28;20469;-75
2021/01/13 05:14:06;;;;;;;29.23;15.23;;;2.80;99.90;;;;;;5034431;28;20457;-73
2021/01/13 05:16:55;;;;;;;37.73;16.47;;;2.80;99.90;;;;;;5034690;28;20502;-74
2021/01/13 05:19:41;;;;;;;29.53;14.27;;;2.70;99.90;;;;;;5063515;28;20425;-75
2021/01/13 05:22:12;;;;;;;19.47;14.10;;;2.70;99.90;;;;;;5014283;28;20461;-73
2021/01/13 05:24:40;;;;;;;29.40;16.07;;;2.70;99.90;;;;;;5014646;28;20473;-74
2021/01/13 05:27:35;;;;;;;30.13;16.10;;;2.70;99.90;;;;;;5015088;28;20843;-73
2021/01/13 05:30:00;;;;;;;38.50;16.37;;;2.70;99.90;;;;;;5034143;28;20395;-73
2021/01/13 05:32:33;;;;;;;19.37;14.30;;;2.80;99.90;;;;;;5033896;28;20412;-73
2021/01/13 05:35:03;;;;;;;22.60;14.40;;;2.80;99.90;;;;;;5034082;28;20426;-73
2021/01/13 05:37:47;;;;;;;25.73;15.40;;;2.70;99.90;;;;;;5033805;28;20421;-73
2021/01/13 05:40:16;;;;;;;29.63;14.97;;;2.70;99.90;;;;;;5032846;28;20467;-73
2021/01/13 05:42:43;;;;;;;27.30;15.83;;;2.70;99.90;;;;;;5033493;28;20458;-73
2021/01/13 05:45:11;;;;;;;20.13;15.13;;;2.60;99.90;;;;;;5033791;28;20444;-73
2021/01/13 05:47:53;;;;;;;32.47;17.57;;;2.70;99.90;;;;;;5034313;28;20593;-73
2021/01/13 05:50:22;;;;;;;27.30;15.73;;;2.60;99.90;;;;;;5044563;28;20496;-73
2021/01/13 05:52:49;;;;;;;33.50;16.90;;;2.60;99.90;;;;;;5033718;28;20510;-73
2021/01/13 05:55:19;;;;;;;24.90;15.83;;;2.60;99.90;;;;;;5041916;28;20855;-73
2021/01/13 05:58:05;;;;;;;28.40;16.63;;;2.60;99.90;;;;;;5033154;28;20425;-73
2021/01/13 06:00:33;;;;;;;28.03;16.53;;;2.60;99.90;;;;;;5022386;28;20435;-73
2021/01/13 06:03:03;;;;;;;29.23;14.10;;;2.50;99.90;;;;;;5031646;28;20415;-74
2021/01/13 06:05:31;;;;;;;23.80;15.83;;;2.50;99.90;;;;;;5033159;28;20410;-73
2021/01/13 06:08:02;;;;;;;20.33;14.10;;;2.50;99.90;;;;;;5033146;28;20418;-73
2021/01/13 06:10:38;;;;;;;34.23;13.77;;;2.60;99.90;;;;;;5032831;28;20419;-74
2021/01/13 06:13:05;;;;;;;20.17;13.37;;;2.50;99.90;;;;;;5032037;28;20410;-73
2021/01/13 06:15:31;;;;;;;25.33;13.10;;;2.60;99.90;;;;;;5029619;28;20451;-73
2021/01/13 06:17:59;;;;;;;25.90;13.40;;;2.50;99.90;;;;;;5032818;28;20421;-73
2021/01/13 06:20:27;;;;;;;22.87;13.70;;;2.60;99.90;;;;;;5032680;28;20417;-73
2021/01/13 06:22:54;;;;;;;35.73;12.67;;;2.60;99.90;;;;;;5032729;28;20425;-73
2021/01/13 06:25:22;;;;;;;24.20;12.67;;;2.60;99.90;;;;;;5032615;28;20422;-73
2021/01/13 06:27:57;;;;;;;19.50;12.87;;;2.60;99.90;;;;;;5032770;28;20426;-73
2021/01/13 06:30:28;;;;;;;26.00;13.30;;;2.60;99.90;;;;;;5031993;28;20417;-73
2021/01/13 06:33:06;;;;;;;22.63;13.80;;;2.60;99.90;;;;;;5064320;28;20450;-73
2021/01/13 06:35:43;;;;;;;18.33;12.83;;;2.60;99.90;;;;;;5032446;28;20461;-74
2021/01/13 06:38:25;;;;;;;19.73;12.20;;;2.60;99.90;;;;;;5032763;28;20418;-74
2021/01/13 06:40:58;;;;;;;27.70;12.00;;;2.60;99.90;;;;;;5032157;28;20453;-73
2021/01/13 06:43:24;;;;;;;18.40;10.93;;;2.50;99.90;;;;;;5032515;28;20777;-73
2021/01/13 06:45:49;;;;;;;24.00;12.17;;;2.50;99.90;;;;;;5032213;28;20517;-73
2021/01/13 06:48:22;;;;;;;17.83;12.37;;;2.50;99.90;;;;;;5032192;28;20236;-73
2021/01/13 06:50:48;;;;;;;23.80;11.47;;;2.50;99.90;;;;;;5032202;28;20227;-73
2021/01/13 06:53:14;;;;;;;21.30;12.23;;;2.50;99.90;;;;;;5032552;28;20446;-73
2021/01/13 06:55:41;;;;;;;20.47;14.67;;;2.50;99.90;;;;;;5032526;28;20412;-73
2021/01/13 06:58:11;;;;;;;22.40;12.03;;;2.50;99.90;;;;;;5032181;28;20167;-73
2021/01/13 07:00:36;;;;;;;23.23;13.07;;;2.50;99.90;;;;;;5031726;28;20417;-73
2021/01/13 07:03:25;;;;;;;21.77;13.27;;;2.50;99.90;;;;;;5030875;28;20428;-73
2021/01/13 07:05:51;;;;;;;32.00;15.50;;;2.50;99.90;;;;;;5032404;28;20219;-73
2021/01/13 07:08:18;;;;;;;21.30;15.43;;;2.50;99.90;;;;;;5032083;28;20988;-73
2021/01/13 07:10:43;;;;;;;25.13;15.50;;;2.40;99.90;;;;;;5031762;28;20420;-73
2021/01/13 07:13:10;;;;;;;21.80;14.60;;;2.40;99.90;;;;;;5032041;28;20966;-73
2021/01/13 07:15:38;;;;;;;24.27;15.47;;;2.40;99.90;;;;;;5032187;28;20208;-73
2021/01/13 07:18:05;;;;;;;26.67;14.60;;;2.40;99.90;;;;;;5031774;28;20427;-73
2021/01/13 07:20:41;;;;;;;27.53;16.07;;;2.30;99.90;;;;;;5063560;28;20426;-73
2021/01/13 07:23:08;;;;;;;27.10;16.80;;;2.30;99.90;;;;;;5031673;28;20819;-73
2021/01/13 07:25:44;;;;;;;21.50;16.83;;;2.30;99.90;;;;;;5031795;28;20827;-73
2021/01/13 07:28:11;;;;;;;28.83;17.53;;;2.40;99.90;;;;;;5031925;28;20795;-73
2021/01/13 07:30:39;;;;;;;20.03;14.10;;;2.30;99.90;;;;;;5031864;28;21185;-73
2021/01/13 07:33:10;;;;;;;18.20;14.47;;;2.40;99.90;;;;;;5031583;28;20421;-73
2021/01/13 07:35:45;;;;;;;28.33;15.27;;;2.40;99.90;;;;;;5031656;28;20418;-73
2021/01/13 07:38:20;;;;;;;22.60;14.47;;;2.30;99.90;;;;;;5030666;28;20779;-73
2021/01/13 07:40:58;;;;;;;30.00;16.63;;;2.40;99.90;;;;;;5029639;28;20546;-73
2021/01/13 07:43:51;;;;;;;26.83;13.40;;;2.30;99.90;;;;;;5030298;28;20785;-73
2021/01/13 07:46:30;;;;;;;18.50;13.20;;;2.40;99.90;;;;;;5034687;28;20421;-73
2021/01/13 07:49:23;;;;;;;25.43;14.13;;;2.40;99.90;;;;;;5035550;28;20438;-73
2021/01/13 07:51:53;;;;;;;39.20;15.00;;;2.40;99.90;;;;;;5035601;28;20414;-73
2021/01/13 07:54:33;;;;;;;26.47;13.27;;;2.30;99.90;;;;;;5025665;28;20442;-73
2021/01/13 07:57:06;;;;;;;27.37;14.10;;;2.40;99.90;;;;;;5035497;28;20421;-73
2021/01/13 07:59:40;;;;;;;30.77;19.13;;;2.40;99.90;;;;;;5067860;28;20502;-73
2021/01/13 08:02:53;;;;;;;15.77;11.80;;;2.40;99.90;;;;;;5035487;28;20504;-73
2021/01/13 08:05:57;;;;;;;20.00;14.23;;;2.50;99.90;;;;;;5017542;28;20415;-73
2021/01/13 08:08:24;;;;;;;31.30;13.63;;;2.50;99.90;;;;;;5035130;28;20505;-73
2021/01/13 08:10:51;;;;;;;16.90;11.53;;;2.60;99.90;;;;;;5034962;28;20457;-73
2021/01/13 08:13:36;;;;;;;16.90;11.30;;;2.60;99.90;;;;;;5034916;28;20803;-73
2021/01/13 08:16:21;;;;;;;34.80;12.90;;;2.60;99.90;;;;;;5035629;28;20409;-73
2021/01/13 08:19:13;;;;;;;25.20;11.60;;;2.70;99.90;;;;;;5035392;28;20421;-73
2021/01/13 08:21:58;;;;;;;22.70;11.87;;;2.60;99.90;;;;;;5049603;28;20974;-73
2021/01/13 08:24:31;;;;;;;19.63;11.50;;;2.80;99.90;;;;;;5035248;28;20465;-73
2021/01/13 08:27:01;;;;;;;15.53;9.40;;;3.20;99.90;;;;;;5034889;28;20915;-73
2021/01/13 08:29:37;;;;;;;16.40;8.93;;;3.60;99.90;;;;;;5034139;28;20403;-73
2021/01/13 08:32:05;;;;;;;19.07;9.13;;;3.80;99.90;;;;;;5030461;28;20509;-73
2021/01/13 08:34:44;;;;;;;20.20;9.07;;;4.20;99.90;;;;;;5034891;28;20990;-74
2021/01/13 08:37:10;;;;;;;15.03;8.50;;;4.50;99.90;;;;;;5034844;28;20417;-73
2021/01/13 08:39:38;;;;;;;13.83;7.80;;;4.90;99.90;;;;;;5034905;28;20422;-73
2021/01/13 08:42:21;;;;;;;14.07;7.00;;;5.40;99.90;;;;;;5034725;28;20442;-73
2021/01/13 08:44:47;;;;;;;12.00;6.73;;;6.00;99.90;;;;;;5034746;28;20824;-73
2021/01/13 08:47:15;;;;;;;11.57;6.33;;;6.20;99.90;;;;;;5033282;28;20429;-73
2021/01/13 08:49:41;;;;;;;15.07;7.77;;;5.80;99.90;;;;;;5034400;28;20994;-73
2021/01/13 08:52:26;;;;;;;15.47;7.63;;;5.50;99.90;;;;;;5034518;28;20953;-73
2021/01/13 08:54:54;;;;;;;12.73;7.13;;;5.00;99.90;;;;;;5033974;28;20487;-73
2021/01/13 08:57:20;;;;;;;18.23;13.20;;;5.70;99.90;;;;;;5033981;28;20559;-73
2021/01/13 08:59:47;;;;;;;7.80;6.20;;;5.90;99.90;;;;;;5034184;28;20509;-73
2021/01/13 09:02:18;;;;;;;14.03;6.40;;;5.80;99.90;;;;;;5034180;28;20537;-73
2021/01/13 09:04:49;;;;;;;9.30;5.40;;;6.00;99.90;;;;;;5024263;28;20439;-73
2021/01/13 09:07:44;;;;;;;10.30;6.13;;;6.60;99.90;;;;;;5034192;28;20935;-73
2021/01/13 09:10:11;;;;;;;11.30;5.70;;;6.70;99.90;;;;;;5032848;28;20472;-73
2021/01/13 09:12:39;;;;;;;11.50;5.47;;;7.00;99.90;;;;;;5033871;28;20442;-73
2021/01/13 09:15:08;;;;;;;8.07;5.20;;;7.60;99.90;;;;;;5033128;28;20438;-73
2021/01/13 09:17:40;;;;;;;13.20;6.80;;;7.50;99.90;;;;;;5033032;28;21007;-73
2021/01/13 09:20:12;;;;;;;17.30;6.07;;;7.50;99.90;;;;;;5034055;28;20923;-73
2021/01/13 09:23:04;;;;;;;28.27;6.63;;;7.20;99.90;;;;;;5033666;28;20446;-73
2021/01/13 09:25:42;;;;;;;11.97;5.63;;;7.60;99.90;;;;;;5033826;28;20821;-73
2021/01/13 09:28:31;;;;;;;8.53;6.40;;;7.80;99.90;;;;;;5033660;28;20417;-73
2021/01/13 09:31:11;;;;;;;10.53;6.13;;;8.10;99.90;;;;;;5033511;28;20461;-73
2021/01/13 09:33:38;;;;;;;12.97;5.47;;;8.40;99.90;;;;;;5034069;28;20425;-73
2021/01/13 09:36:04;;;;;;;9.07;6.70;;;8.10;99.90;;;;;;5033479;28;20422;-73
2021/01/13 09:38:34;;;;;;;11.63;6.10;;;8.20;99.90;;;;;;5032532;28;20434;-73
2021/01/13 09:41:09;;;;;;;7.60;6.50;;;7.70;99.90;;;;;;5033481;28;20192;-73
2021/01/13 09:43:44;;;;;;;9.87;6.43;;;7.60;99.90;;;;;;5032241;28;20444;-73
2021/01/13 09:46:22;;;;;;;10.67;6.33;;;7.00;99.90;;;;;;5033379;28;20476;-73
2021/01/13 09:49:00;;;;;;;16.97;6.70;;;7.40;99.90;;;;;;5034808;28;20422;-73
2021/01/13 09:51:27;;;;;;;12.47;7.23;;;6.90;99.90;;;;;;5029828;28;20425;-73
2021/01/13 09:53:54;;;;;;;13.83;8.03;;;6.30;99.90;;;;;;5030925;28;20515;-73
2021/01/13 09:56:21;;;;;;;14.20;8.03;;;5.70;99.90;;;;;;5032472;28;20479;-73
2021/01/13 09:58:48;;;;;;;23.77;13.73;;;5.50;99.90;;;;;;5029220;28;20437;-73
2021/01/13 10:01:19;;;;;;;14.00;6.93;;;5.50;99.90;;;;;;5046698;28;20867;-73
2021/01/13 10:03:47;;;;;;;17.57;8.07;;;6.00;99.90;;;;;;5033352;28;20492;-73
2021/01/13 10:06:26;;;;;;;21.07;7.33;;;6.60;99.90;;;;;;5028854;28;20430;-73
2021/01/13 10:08:53;;;;;;;9.70;5.70;;;7.00;99.90;;;;;;5031794;28;20426;-73
2021/01/13 10:11:20;;;;;;;10.93;6.97;;;7.90;99.90;;;;;;5032285;28;20842;-73
2021/01/13 10:13:56;;;;;;;10.83;6.77;;;8.20;99.90;;;;;;5030870;28;20460;-73
2021/01/13 10:16:22;;;;;;;19.30;7.40;;;7.50;99.90;;;;;;5016841;28;20434;-73
2021/01/13 10:18:56;;;;;;;16.47;8.33;;;7.10;99.90;;;;;;5031221;28;20483;-73
2021/01/13 10:21:22;;;;;;;20.20;7.13;;;6.80;99.90;;;;;;5031471;28;20238;-73
2021/01/13 10:23:49;;;;;;;16.60;8.13;;;6.70;99.90;;;;;;5030622;28;20533;-73
2021/01/13 10:26:16;;;;;;;18.70;8.73;;;6.40;99.90;;;;;;5028274;28;21045;-73
2021/01/13 10:28:42;;;;;;;14.00;8.10;;;6.50;99.90;;;;;;5031104;28;20426;-73
2021/01/13 10:31:10;;;;;;;16.50;7.97;;;6.30;99.90;;;;;;5047648;28;20430;-73
2021/01/13 10:33:51;;;;;;;15.83;7.57;;;6.00;99.90;;;;;;5029019;28;20453;-73
2021/01/13 10:36:30;;;;;;;22.03;9.50;;;6.00;99.90;;;;;;5023541;28;20579;-73
2021/01/13 10:39:26;;;;;;;14.17;8.70;;;5.80;99.90;;;;;;5032638;28;20923;-73
2021/01/13 10:41:55;;;;;;;20.80;7.50;;;6.00;99.90;;;;;;5027465;28;20982;-73
2021/01/13 10:44:24;;;;;;;18.63;8.67;;;6.30;99.90;;;;;;5031097;28;20517;-74
2021/01/13 10:46:50;;;;;;;10.80;8.30;;;6.10;99.90;;;;;;5032661;28;20430;-73
2021/01/13 10:49:32;;;;;;;12.83;8.00;;;6.30;99.90;;;;;;5031910;28;20510;-72
2021/01/13 10:52:11;;;;;;;19.53;7.80;;;6.30;99.90;;;;;;5029381;28;20440;-73
2021/01/13 10:54:45;;;;;;;11.30;6.80;;;6.60;99.90;;;;;;5031454;28;20437;-74
2021/01/13 10:57:12;;;;;;;15.37;7.20;;;6.80;99.90;;;;;;5031723;28;20437;-71
2021/01/13 10:59:40;;;;;;;12.97;7.93;;;6.80;99.90;;;;;;5030970;28;20438;-72
2021/01/13 11:02:11;;;;;;;16.60;7.70;;;6.60;99.90;;;;;;5028420;28;20465;-72
2021/01/13 11:04:38;;;;;;;13.53;7.80;;;6.40;99.90;;;;;;5031399;28;20430;-72
2021/01/13 11:07:04;;;;;;;12.43;6.47;;;6.40;99.90;;;;;;5031622;28;20782;-72
2021/01/13 11:09:31;;;;;;;15.73;8.27;;;6.50;99.90;;;;;;5030572;28;20824;-72
2021/01/13 11:11:57;;;;;;;17.13;9.90;;;6.80;99.90;;;;;;5031404;28;20492;-72
2021/01/13 11:14:44;;;;;;;33.63;16.80;;;6.70;99.90;;;;;;5029621;28;20454;-71
2021/01/13 11:17:18;;;;;;;15.50;6.50;;;6.90;99.90;;;;;;5028961;28;20437;-72
2021/01/13 11:19:53;;;;;;;16.87;7.10;;;7.00;99.90;;;;;;5042194;28;20430;-72
2021/01/13 11:22:29;;;;;;;14.03;6.60;;;6.90;99.90;;;;;;5031121;28;20461;-72
2021/01/13 11:24:55;;;;;;;18.73;6.47;;;6.60;99.90;;;;;;5019045;28;20808;-72
2021/01/13 11:27:22;;;;;;;11.40;5.47;;;6.60;99.90;;;;;;5030628;28;20430;-72
2021/01/13 11:29:52;;;;;;;13.07;6.90;;;6.60;99.90;;;;;;5030918;28;20182;-73
2021/01/13 11:32:20;;;;;;;17.20;7.30;;;6.50;99.90;;;;;;5031829;28;20418;-73
2021/01/13 11:34:50;;;;;;;19.30;8.10;;;6.50;99.90;;;;;;5030519;28;20454;-73
2021/01/13 11:37:28;;;;;;;10.43;5.90;;;6.50;99.90;;;;;;5031463;28;20429;-72
2021/01/13 11:40:15;;;;;;;9.70;6.53;;;6.50;99.90;;;;;;5029284;28;20434;-73
2021/01/13 11:43:28;;;;;;;11.00;6.97;;;6.50;99.90;;;;;;5031596;28;20449;-72
2021/01/13 11:46:02;;;;;;;12.53;5.43;;;6.10;99.90;;;;;;5001536;28;20419;-72
2021/01/13 11:48:36;;;;;;;9.30;5.23;;;6.10;99.90;;;;;;5007496;28;20821;-72
2021/01/13 11:51:10;;;;;;;5.70;3.90;;;6.00;99.90;;;;;;5018832;28;20461;-72
2021/01/13 11:53:37;;;;;;;11.80;5.77;;;5.90;99.90;;;;;;5030550;28;20477;-73
2021/01/13 11:56:04;;;;;;;12.53;5.40;;;5.80;99.90;;;;;;5031059;28;20430;-72
2021/01/13 11:58:30;;;;;;;10.07;5.40;;;5.90;99.90;;;;;;5030085;28;20418;-73
2021/01/13 12:00:57;;;;;;;7.53;4.50;;;6.10;99.90;;;;;;5018773;28;20453;-72
2021/01/13 12:03:23;;;;;;;7.80;4.27;;;6.00;99.90;;;;;;5031468;28;20505;-73
2021/01/13 12:05:49;;;;;;;10.23;4.70;;;5.90;99.90;;;;;;5030483;28;20426;-72
2021/01/13 12:08:16;;;;;;;11.17;4.50;;;5.90;99.90;;;;;;5030915;28;21030;-72
2021/01/13 12:10:43;;;;;;;10.03;6.07;;;6.00;99.90;;;;;;5029445;28;20436;-72
2021/01/13 12:13:30;;;;;;;12.67;5.60;;;6.00;99.90;;;;;;5030187;28;20433;-72
2021/01/13 12:16:00;;;;;;;18.53;5.83;;;6.20;99.90;;;;;;5031258;28;20441;-74
2021/01/13 12:18:27;;;;;;;14.77;6.87;;;6.20;99.90;;;;;;5027417;28;20454;-71
2021/01/13 12:20:58;;;;;;;12.23;6.73;;;6.20;99.90;;;;;;5029741;28;20422;-72
2021/01/13 12:23:38;;;;;;;15.60;6.27;;;6.20;99.90;;;;;;5030741;28;20970;-71
2021/01/13 12:26:16;;;;;;;11.80;6.07;;;6.00;99.90;;;;;;5028588;28;20978;-72
2021/01/13 12:28:43;;;;;;;12.20;5.60;;;6.10;99.90;;;;;;5023191;28;20262;-72
2021/01/13 12:31:09;;;;;;;9.80;5.00;;;6.20;99.90;;;;;;5032671;28;21016;-72
2021/01/13 12:33:39;;;;;;;12.23;5.90;;;6.40;99.90;;;;;;5034624;28;20533;-72
2021/01/13 12:36:29;;;;;;;11.13;6.23;;;6.40;99.90;;;;;;5027984;28;20557;-74
2021/01/13 12:38:56;;;;;;;11.50;5.30;;;6.30;99.90;;;;;;5028132;28;20438;-72
2021/01/13 12:41:24;;;;;;;23.07;6.97;;;6.40;99.90;;;;;;5032409;28;20493;-71
2021/01/13 12:43:50;;;;;;;18.53;7.47;;;6.20;99.90;;;;;;5034754;28;20472;-72
2021/01/13 12:46:29;;;;;;;10.30;6.27;;;6.20;99.90;;;;;;5033980;28;20437;-72
2021/01/13 12:48:55;;;;;;;11.73;5.47;;;6.30;99.90;;;;;;5033735;28;20426;-72
2021/01/13 12:51:21;;;;;;;12.03;6.10;;;6.30;99.90;;;;;;5033122;28;20514;-72
2021/01/13 12:53:47;;;;;;;16.63;6.77;;;6.40;99.90;;;;;;5038058;28;20544;-72
2021/01/13 12:56:29;;;;;;;10.60;5.57;;;6.50;99.90;;;;;;5054578;28;20522;-72
2021/01/13 12:58:56;;;;;;;13.70;8.60;;;6.40;99.90;;;;;;5023207;28;20209;-72
2021/01/13 13:01:23;;;;;;;13.90;8.50;;;6.20;99.90;;;;;;5033685;28;20848;-72
2021/01/13 13:03:49;;;;;;;11.83;5.87;;;6.20;99.90;;;;;;5031876;28;20813;-72
2021/01/13 13:06:32;;;;;;;11.50;5.20;;;6.20;99.90;;;;;;5032528;28;20426;-72
2021/01/13 13:09:03;;;;;;;9.30;6.43;;;6.30;99.90;;;;;;5032994;28;20440;-72